»·PEaware :: N413C KLGB-KONT

N413C :: KLGB-KONT

FLIGHT INFORMATION

Flight Status: Arrived
Operator: Privately registered:
United States
More flights under this callsign
Pilot: Alec D. (17934)
Aircraft: CESSNA 182 SKYLANE
(C182)
More flights by this aircraft type
Origin: KLGB Long Beach
United States
Destination: KONT Ontario Intl
United States
More flights between these airports :: More routes between these airports
Route: +SLI V8 PDZ
File this flight plan on PilotEdge
Remarks:
Altitude:
(Current/Filed)
5,000ft
Speed:
(Current/Filed)
135kts
Departed: 04-Oct-19 09:45 AM
Arrived: 04-Oct-19 10:08 AM
Distance/Time
Traveled:
30nm/0:23
Distance/Time
To Go:
Arrived

Flight Plot

Page will automatically refresh every two minutes.


Map Options




Map Legend


Flown Route
Filed Route
Departure Airport
Arrival Airport
Navaid (VOR, NDB)
Fix

Horizontal Profiles

Position Reports

Time Latitude Longitude Heading Altitude Ground
Speed
04-Oct-19 09:22 33.820739 -118.144381 88 63ft 0kts
04-Oct-19 09:23 33.820739 -118.144381 88 63ft 0kts
04-Oct-19 09:24 33.820739 -118.144381 88 63ft 0kts
04-Oct-19 09:25 33.820739 -118.144381 88 63ft 0kts
04-Oct-19 09:26 33.820739 -118.144381 88 63ft 0kts
04-Oct-19 09:27 33.820739 -118.144373 88 63ft 0kts
04-Oct-19 09:28 33.820739 -118.144364 88 63ft 0kts
04-Oct-19 09:29 33.820740 -118.144348 88 63ft 0kts
04-Oct-19 09:30 33.820740 -118.144337 88 63ft 0kts
04-Oct-19 09:31 33.820740 -118.144326 87 63ft 0kts
04-Oct-19 09:32 33.820741 -118.144315 87 63ft 0kts
04-Oct-19 09:33 33.820741 -118.144304 87 63ft 0kts
04-Oct-19 09:34 33.820741 -118.144292 87 63ft 0kts
04-Oct-19 09:35 33.820742 -118.144281 87 63ft 0kts
04-Oct-19 09:36 33.820997 -118.143928 359 63ft 5kts
04-Oct-19 09:37 33.821091 -118.143930 359 63ft 0kts
04-Oct-19 09:38 33.821110 -118.143931 358 63ft 0kts
04-Oct-19 09:39 33.821119 -118.143931 358 63ft 0kts
04-Oct-19 09:40 33.821359 -118.143936 359 63ft 7kts
04-Oct-19 09:41 33.822052 -118.143905 348 63ft 0kts
04-Oct-19 09:42 33.822061 -118.143907 348 63ft 0kts
04-Oct-19 09:43 33.822071 -118.143910 348 63ft 0kts
04-Oct-19 09:44 33.822779 -118.155998 271 287ft 87kts
04-Oct-19 09:45 33.818229 -118.187572 210 1213ft 107kts
04-Oct-19 09:46 33.792818 -118.207758 211 1897ft 111kts
04-Oct-19 09:47 33.766934 -118.228032 214 2606ft 112kts
04-Oct-19 09:48 33.738984 -118.238066 136 3283ft 119kts
04-Oct-19 09:49 33.733683 -118.199115 75 3991ft 119kts
04-Oct-19 09:50 33.746248 -118.162077 64 4713ft 120kts
04-Oct-19 09:51 33.760861 -118.120065 64 5069ft 151kts
04-Oct-19 09:52 33.777351 -118.071295 66 4989ft 159kts
04-Oct-19 09:53 33.792891 -118.023432 66 5000ft 149kts
04-Oct-19 09:54 33.805294 -117.977079 75 5002ft 147kts
04-Oct-19 09:55 33.816243 -117.928388 71 5006ft 159kts
04-Oct-19 09:56 33.829159 -117.877660 70 4998ft 160kts
04-Oct-19 09:57 33.842276 -117.826721 70 4998ft 159kts
04-Oct-19 09:58 33.855142 -117.776661 71 4995ft 154kts
04-Oct-19 09:59 33.881569 -117.739156 34 4694ft 154kts
04-Oct-19 10:00 33.915690 -117.708888 35 4181ft 151kts
04-Oct-19 10:01 33.947655 -117.680549 35 4049ft 142kts
04-Oct-19 10:02 33.982459 -117.653279 32 3211ft 153kts
04-Oct-19 10:03 34.020156 -117.628961 30 2185ft 149kts
04-Oct-19 10:04 34.040842 -117.595263 94 1960ft 121kts
04-Oct-19 10:05 34.042297 -117.562379 28 1592ft 97kts
04-Oct-19 10:06 34.054959 -117.579392 269 1058ft 68kts
04-Oct-19 10:07 34.054365 -117.589943 180 947ft 7kts
04-Oct-19 10:08 34.053666 -117.593353 270 947ft 18kts
04-Oct-19 10:09 34.053673 -117.598523 270 947ft 10kts
04-Oct-19 10:10 34.053670 -117.604740 269 947ft 21kts
04-Oct-19 10:11 34.053695 -117.610941 270 947ft 21kts
04-Oct-19 10:12 34.052396 -117.613378 175 947ft 2kts
04-Oct-19 10:13 34.052391 -117.613378 175 947ft 0kts

Navigation Log

Ident Type
Flight plan parsing failed, navigation log unavailable